Portada
METAR-TAF:

METAR-TAF

Aeroports :

Porto, Portugal

latitud: 41-14N, longitud: 008-41W, altitud: 69 m

Observació

L'informe es va fer fa 34 minuts, a les 17:00 UTC
Vent 5 kt del Nord/Nord-Oest, variant entre Nord-Oest i Nord
Temperatura 22°C
Humitat 65%
Pressió 1013 hPa
Visibilitat 10 km o més
sense núvols per sota de 1500 mi sense presència de cumulonimbus.

METAR: LPPR 191700Z 34005KT 310V010 CAVOK 22/15 Q1013

Hora: 18:34 (17:34 UTC)

Pronòstic

L'informe es va fer fa 6 hores i 34 minuts, a les 11:00 UTC
Pronòstic vàlid del 19 a les 12 UTC al 20 a les 12 UTC
Vent 10 kt del Nord-Oest
Visibilitat 10 km o més
sense núvols per sota de 1500 mi sense presència de cumulonimbus.
Evolucionant progressivament
l' 19 a les 17 UTC al 19 a les 20 UTC
Vent 8 kt del Nord-Est
Evolucionant progressivament
l' 20 a les 00 UTC al 20 a les 03 UTC
Vent 8 kt del Est

TAF: LPPR 191100Z 1912/2012 32010KT CAVOK BECMG 1917/1920 05008KT BECMG 2000/2003 09008KT

Observacions i pronòstics meteorològics de més de 4000 aeroports (METAR i TAF).

Les estacions disponibles són els punts grocs i vermells al mapa.

Posi el ratolí al punt desitjat per veure el nom de l'estació.

Feu clic per veure les observacions i els pronòstics meteorològics.

Per canviar el mapa: feu clic els botons verds amb una creu de color negre per apropar; al botó verd amb un guió per allunyar la imatge; o en les fletxes verdes per a mapes adjacents.


METAR-TAF: